Time;durP1;ratioP1;P1;durP2;ratioP2;P2;SDS_P1;SDS_P2;PMS_P1;PMS_P2;Temp;Humidity;BMP_temperature;BMP_pressure;BME280_temperature;BME280_humidity;BME280_pressure;Samples;Min_cycle;Max_cycle;Signal;HPM_P1;HPM_P2
2023/01/10 00:01:59;;;;;;;6.22;2.65;;;;;;;-144.47;90.94;52985.19;5010953;28;20037;-68
2023/01/10 00:04:25;;;;;;;7.38;2.28;;;;;;;-144.47;90.90;53018.97;5011051;28;20040;-68
2023/01/10 00:06:51;;;;;;;6.72;2.58;;;;;;;-144.47;90.59;53015.00;5010722;28;20445;-72
2023/01/10 00:09:17;;;;;;;10.00;2.38;;;;;;;-144.47;90.10;52991.16;5021286;28;20029;-69
2023/01/10 00:14:28;;;;;;;7.93;2.80;;;;;;;-144.47;89.93;52991.16;5011611;28;20117;-67
2023/01/10 00:16:53;;;;;;;11.40;3.40;;;;;;;-144.47;90.02;53003.06;5010148;28;20138;-69
2023/01/10 00:19:19;;;;;;;7.50;2.53;;;;;;;-144.47;89.90;53003.06;5011197;28;20559;-67
2023/01/10 00:21:45;;;;;;;7.93;2.95;;;;;;;-144.47;89.49;53009.03;5010280;28;20452;-70
2023/01/10 00:24:21;;;;;;;6.82;2.38;;;;;;;-144.47;89.41;53016.97;5010274;28;20113;-68
2023/01/10 00:26:52;;;;;;;5.47;2.60;;;;;;;-144.47;89.58;53007.03;5010228;28;20053;-67
2023/01/10 00:29:19;;;;;;;12.38;3.05;;;;;;;-144.47;89.86;52967.31;5009814;28;20029;-67
2023/01/10 00:31:44;;;;;;;6.30;2.60;;;;;;;-144.47;89.55;52967.31;5008427;28;20085;-67
2023/01/10 00:34:10;;;;;;;6.85;2.80;;;;;;;-144.47;89.29;52981.22;5008698;28;20106;-67
2023/01/10 00:36:35;;;;;;;6.05;2.40;;;;;;;-144.47;89.27;53015.00;5008765;28;20018;-67
2023/01/10 00:39:01;;;;;;;7.13;3.28;;;;;;;-144.47;88.94;53015.00;5009520;28;20502;-68
2023/01/10 00:44:10;;;;;;;8.15;2.90;;;;;;;-144.47;88.79;52979.22;5008939;28;20033;-66
2023/01/10 00:46:36;;;;;;;10.27;3.50;;;;;;;-144.47;88.98;52987.19;5008904;28;20102;-67
2023/01/10 00:49:05;;;;;;;9.18;2.85;;;;;;;-144.47;89.04;53009.03;5008993;28;20030;-68
2023/01/10 00:51:31;;;;;;;10.18;3.25;;;;;;;-144.47;88.94;52987.19;5008802;28;20037;-69
2023/01/10 00:53:56;;;;;;;8.75;3.13;;;;;;;-144.47;89.09;52991.16;5008291;28;20029;-67
2023/01/10 00:56:21;;;;;;;6.90;2.83;;;;;;;-144.47;88.85;52971.28;5016774;28;20026;-69
2023/01/10 00:58:47;;;;;;;6.93;2.80;;;;;;;-144.47;88.73;53011.00;5019282;28;20479;-67
2023/01/10 01:01:12;;;;;;;9.90;3.33;;;;;;;-144.47;88.66;53003.06;5007582;28;20056;-68
2023/01/10 01:03:37;;;;;;;8.10;3.13;;;;;;;-144.47;88.69;53015.00;5031311;23;20334;-67
2023/01/10 01:06:05;;;;;;;5.75;2.97;;;;;;;-144.47;88.63;52969.31;5011146;28;20026;-67
2023/01/10 01:08:31;;;;;;;7.63;3.20;;;;;;;-144.47;88.88;52999.09;5021960;28;20029;-64
2023/01/10 01:10:56;;;;;;;7.78;2.88;;;;;;;-144.47;88.47;53011.00;5010523;28;20026;-70
2023/01/10 01:13:22;;;;;;;6.10;2.60;;;;;;;-144.47;88.50;53003.06;5010570;28;20045;-67
2023/01/10 01:15:48;;;;;;;5.78;2.90;;;;;;;-144.47;88.70;52983.22;5010729;28;20033;-70
2023/01/10 01:18:17;;;;;;;6.60;2.88;;;;;;;-144.47;89.01;53003.06;5009971;28;20097;-67
2023/01/10 01:20:44;;;;;;;7.65;3.38;;;;;;;-144.47;89.60;53013.00;5010422;28;20041;-67
2023/01/10 01:23:11;;;;;;;6.35;2.92;;;;;;;-144.47;89.91;52997.09;5009218;28;20040;-66
2023/01/10 01:25:37;;;;;;;14.45;3.30;;;;;;;-144.47;90.30;52971.28;5011044;28;20018;-69
2023/01/10 01:28:02;;;;;;;8.10;3.72;;;;;;;-144.47;90.64;52985.19;5010346;28;20514;-68
2023/01/10 01:30:31;;;;;;;7.07;3.17;;;;;;;-144.47;90.97;52969.31;4993052;28;20026;-67
2023/01/10 01:32:57;;;;;;;10.23;3.65;;;;;;;-144.47;91.48;52961.34;5010252;28;20041;-68
2023/01/10 01:35:24;;;;;;;7.60;3.70;;;;;;;-144.47;91.69;52999.09;5009808;28;20030;-66
2023/01/10 01:37:50;;;;;;;9.02;3.75;;;;;;;-144.47;91.60;52963.34;5010493;28;20034;-66
2023/01/10 01:40:19;;;;;;;11.35;3.95;;;;;;;-144.47;91.79;52999.09;4999093;28;20037;-65
2023/01/10 01:42:54;;;;;;;8.77;3.75;;;;;;;-144.47;91.99;52979.22;5011303;28;20387;-66
2023/01/10 01:45:23;;;;;;;7.90;3.60;;;;;;;-144.47;91.97;52975.25;5011095;28;20030;-66
2023/01/10 01:47:57;;;;;;;6.72;3.70;;;;;;;-144.47;91.37;53003.06;5010202;28;20135;-67
2023/01/10 01:50:35;;;;;;;9.68;3.88;;;;;;;-144.47;91.25;53022.94;5009338;28;20037;-67
2023/01/10 01:53:08;;;;;;;7.28;3.50;;;;;;;-144.47;91.22;52973.28;5010078;28;20117;-67
2023/01/10 01:55:35;;;;;;;9.82;3.63;;;;;;;-144.47;91.12;52997.09;5014497;28;20033;-67
2023/01/10 01:58:05;;;;;;;8.20;3.72;;;;;;;-144.47;91.07;53018.97;5018014;28;20131;-67
2023/01/10 02:00:40;;;;;;;8.15;4.10;;;;;;;-144.47;90.90;52987.19;5014972;28;20034;-68
2023/01/10 02:03:05;;;;;;;7.13;3.70;;;;;;;-144.47;90.97;53013.00;5010201;28;20025;-65
2023/01/10 02:05:34;;;;;;;8.60;3.75;;;;;;;-144.47;91.26;53011.00;5009979;28;20052;-67
2023/01/10 02:08:03;;;;;;;;;;;;;;;-144.47;91.44;52995.13;5018676;28;20025;-67
2023/01/10 02:10:52;;;;;;;10.75;3.72;;;;;;;-144.47;91.39;52989.16;5014010;28;19916;-66
2023/01/10 02:13:20;;;;;;;10.98;3.45;;;;;;;-144.47;91.56;53009.03;5003171;28;20033;-64
2023/01/10 02:15:46;;;;;;;9.27;3.95;;;;;;;-144.47;91.55;52985.19;5014536;28;20500;-68
2023/01/10 02:18:12;;;;;;;9.32;3.72;;;;;;;-144.47;91.74;52979.22;5015366;28;20033;-69
2023/01/10 02:21:24;;;;;;;9.88;4.00;;;;;;;-144.47;91.91;53011.00;5017146;28;20111;-66
2023/01/10 02:23:55;;;;;;;9.75;3.67;;;;;;;-144.47;91.96;52983.22;5017914;28;20036;-69
2023/01/10 02:26:45;;;;;;;7.47;3.63;;;;;;;-144.47;92.10;53007.03;5015752;28;20030;-66
2023/01/10 02:29:26;;;;;;;10.32;3.72;;;;;;;-144.47;92.45;52985.19;5026375;28;20030;-67
2023/01/10 02:32:10;;;;;;;10.13;3.42;;;;;;;-144.47;92.68;52969.31;5025566;28;20053;-67
2023/01/10 02:34:52;;;;;;;9.95;3.80;;;;;;;-144.47;93.06;52999.09;5015624;28;20030;-70
2023/01/10 02:37:49;;;;;;;11.07;4.13;;;;;;;-144.47;93.09;53013.00;5004182;28;20026;-68
2023/01/10 02:40:33;;;;;;;10.40;3.90;;;;;;;-144.47;93.27;53003.06;5029358;28;20095;-67
2023/01/10 02:43:17;;;;;;;9.07;4.07;;;;;;;-144.47;93.39;52979.22;5013858;28;20029;-68
2023/01/10 02:46:04;;;;;;;10.27;5.05;;;;;;;-144.47;93.52;52999.09;5015628;28;20033;-69
2023/01/10 02:48:30;;;;;;;11.75;3.95;;;;;;;-144.47;93.38;52995.13;5016502;28;20021;-70
2023/01/10 02:51:13;;;;;;;10.65;4.03;;;;;;;-144.47;93.53;53024.91;5023441;28;20026;-68
2023/01/10 02:53:44;;;;;;;11.07;3.80;;;;;;;-144.47;93.41;52995.13;5029468;28;20025;-68
2023/01/10 02:56:25;;;;;;;10.15;3.10;;;;;;;-144.47;93.28;53011.00;5025305;28;20055;-66
2023/01/10 02:59:24;;;;;;;11.13;3.90;;;;;;;-144.47;92.93;53005.06;5041578;28;20030;-65
2023/01/10 03:02:08;;;;;;;8.20;3.20;;;;;;;-144.47;91.97;53003.06;5015123;28;20052;-67
2023/01/10 03:05:02;;;;;;;9.52;3.70;;;;;;;-144.47;91.77;52997.09;5013443;28;20381;-68
2023/01/10 03:07:51;;;;;;;11.13;3.58;;;;;;;-144.47;91.54;52991.16;5016644;28;20037;-68
2023/01/10 03:10:43;;;;;;;9.70;4.28;;;;;;;-144.47;91.53;53007.03;5002721;28;20411;-68
2023/01/10 03:13:17;;;;;;;16.05;4.00;;;;;;;-144.47;91.45;52977.25;5013736;28;20037;-69
2023/01/10 03:15:45;;;;;;;15.38;4.82;;;;;;;-144.47;91.50;52991.16;5014007;28;20095;-66
2023/01/10 03:18:17;;;;;;;7.93;3.97;;;;;;;-144.47;91.57;53030.88;5012856;28;20091;-67
2023/01/10 03:20:46;;;;;;;9.15;3.97;;;;;;;-144.47;91.41;53016.97;5013401;28;20034;-65
2023/01/10 03:23:14;;;;;;;11.07;4.13;;;;;;;-144.47;91.42;52981.22;5013360;28;20041;-67
2023/01/10 03:25:42;;;;;;;7.95;4.25;;;;;;;-144.47;91.48;52991.16;5013549;28;20120;-69
2023/01/10 03:28:14;;;;;;;11.90;4.57;;;;;;;-144.47;91.71;53013.00;5013154;28;20029;-68
2023/01/10 03:30:51;;;;;;;7.85;3.65;;;;;;;-144.47;91.79;53003.06;5002842;28;20058;-69
2023/01/10 03:33:23;;;;;;;13.15;4.15;;;;;;;-144.47;92.26;52967.31;5013494;28;20034;-67
2023/01/10 03:36:04;;;;;;;10.10;4.40;;;;;;;-144.47;92.26;52977.25;5012262;28;20369;-68
2023/01/10 03:38:32;;;;;;;10.85;4.65;;;;;;;-144.47;92.09;52969.31;5011241;28;20022;-68
2023/01/10 03:41:33;;;;;;;10.70;4.60;;;;;;;-144.47;91.85;53016.97;5013584;28;20049;-67
2023/01/10 03:47:31;;;;;;;12.93;4.57;;;;;;;-144.47;92.04;53016.97;5004629;28;20033;-65
2023/01/10 03:50:03;;;;;;;13.82;4.30;;;;;;;-144.47;91.60;53013.00;5010362;28;20117;-67
2023/01/10 03:52:31;;;;;;;11.90;4.15;;;;;;;-144.47;91.42;53028.88;5016433;28;20026;-68
2023/01/10 03:54:57;;;;;;;10.07;4.22;;;;;;;-144.47;91.00;53009.03;5014121;28;20475;-69
2023/01/10 03:57:24;;;;;;;9.57;4.20;;;;;;;-144.47;90.80;52995.13;5015352;28;20051;-68
2023/01/10 03:59:53;;;;;;;14.95;4.63;;;;;;;-144.47;90.77;52995.13;5020667;28;20029;-67
2023/01/10 04:02:19;;;;;;;8.02;4.07;;;;;;;-144.47;90.59;53007.03;5012821;28;20025;-68
2023/01/10 04:04:45;;;;;;;12.48;4.68;;;;;;;-144.47;90.43;52981.22;5012600;28;20038;-66
2023/01/10 04:07:11;;;;;;;8.77;4.35;;;;;;;-144.47;90.52;52969.31;5012933;28;20022;-67
2023/01/10 04:09:36;;;;;;;10.65;4.63;;;;;;;-144.47;90.25;53016.97;5023258;28;20026;-67
2023/01/10 04:12:02;;;;;;;11.82;4.40;;;;;;;-144.47;90.18;52949.44;5013175;28;20131;-66
2023/01/10 04:14:28;;;;;;;9.13;3.97;;;;;;;-144.47;90.07;52989.16;5014116;28;20096;-67
2023/01/10 04:16:54;;;;;;;9.45;3.90;;;;;;;-144.47;90.33;53007.03;5012251;28;20022;-68
2023/01/10 04:19:19;;;;;;;12.75;4.20;;;;;;;-144.47;90.30;52991.16;5012733;28;20125;-67
2023/01/10 04:21:45;;;;;;;8.93;3.58;;;;;;;-144.47;90.30;52975.25;5012132;28;20049;-67
2023/01/10 04:24:11;;;;;;;9.50;4.45;;;;;;;-144.47;89.80;52997.09;5011797;28;20029;-68
2023/01/10 04:26:37;;;;;;;8.38;3.60;;;;;;;-144.47;90.06;52985.19;5011954;28;20025;-69
2023/01/10 04:29:04;;;;;;;12.95;4.28;;;;;;;-144.47;89.87;53018.97;5011228;28;20030;-68
2023/01/10 04:31:30;;;;;;;9.18;3.85;;;;;;;-144.47;90.01;53007.03;5010093;28;20022;-67
2023/01/10 04:33:56;;;;;;;8.68;3.50;;;;;;;-144.47;90.10;52993.13;5012053;28;20033;-67
2023/01/10 04:36:21;;;;;;;15.93;4.50;;;;;;;-144.47;90.10;52999.09;5011954;28;20040;-65
2023/01/10 04:38:47;;;;;;;8.73;4.20;;;;;;;-144.47;89.83;52967.31;5011972;28;20029;-66
2023/01/10 04:41:12;;;;;;;12.10;3.65;;;;;;;-144.47;89.85;52981.22;5010135;28;20026;-67
2023/01/10 04:43:40;;;;;;;11.80;4.28;;;;;;;-144.47;89.84;52971.28;5010867;28;20080;-66
2023/01/10 04:46:06;;;;;;;11.77;4.17;;;;;;;-144.47;89.88;52979.22;5011740;28;20105;-67
2023/01/10 04:48:32;;;;;;;9.13;3.47;;;;;;;-144.47;89.84;52967.31;5010854;28;20267;-64
2023/01/10 04:50:58;;;;;;;6.85;3.70;;;;;;;-144.47;89.53;52983.22;5010048;28;20113;-67
2023/01/10 04:53:24;;;;;;;8.32;3.85;;;;;;;-144.47;89.48;52973.28;5010728;28;20117;-68
2023/01/10 04:55:49;;;;;;;6.85;3.67;;;;;;;-144.47;89.29;52989.16;5013738;28;20031;-65
2023/01/10 04:58:15;;;;;;;11.85;4.13;;;;;;;-144.47;89.33;53003.06;5017316;28;20029;-66
2023/01/10 05:00:41;;;;;;;10.23;4.07;;;;;;;-144.47;89.48;52969.31;5011134;28;20037;-66
2023/01/10 05:03:07;;;;;;;9.45;3.60;;;;;;;-144.47;89.48;52971.28;5011301;28;20036;-67
2023/01/10 05:05:34;;;;;;;8.10;3.92;;;;;;;-144.47;89.71;52983.22;5011707;28;20572;-69
2023/01/10 05:08:06;;;;;;;11.13;3.97;;;;;;;-144.47;89.74;52979.22;5000694;28;20063;-69
2023/01/10 05:10:31;;;;;;;9.27;4.15;;;;;;;-144.47;89.55;52989.16;5011162;28;20544;-64
2023/01/10 05:12:57;;;;;;;6.65;3.55;;;;;;;-144.47;90.00;52959.38;5011314;28;20045;-69
2023/01/10 05:15:23;;;;;;;7.10;4.35;;;;;;;-144.47;90.17;52977.25;5008946;28;20034;-68
2023/01/10 05:17:50;;;;;;;10.35;3.88;;;;;;;-144.47;90.21;52987.19;5010865;28;20499;-69
2023/01/10 05:20:16;;;;;;;8.48;4.10;;;;;;;-144.47;90.35;52995.13;5010803;28;20180;-67
2023/01/10 05:22:41;;;;;;;13.55;4.18;;;;;;;-144.47;90.37;52957.38;5010699;28;20034;-66
2023/01/10 05:25:07;;;;;;;8.98;4.22;;;;;;;-144.47;90.38;52993.13;5010980;28;20115;-70
2023/01/10 05:27:33;;;;;;;11.05;3.88;;;;;;;-144.47;89.87;52963.34;5010749;28;20054;-67
2023/01/10 05:29:58;;;;;;;10.13;3.92;;;;;;;-144.47;89.84;52969.31;5009472;28;20029;-66
2023/01/10 05:32:28;;;;;;;10.45;3.67;;;;;;;-144.47;89.82;52955.41;5009965;28;20025;-65
2023/01/10 05:34:53;;;;;;;10.35;3.65;;;;;;;-144.47;89.63;52971.28;5010033;28;20126;-66
2023/01/10 05:37:19;;;;;;;9.40;3.72;;;;;;;-144.47;89.75;52975.25;5010614;28;20049;-67
2023/01/10 05:39:44;;;;;;;9.95;3.25;;;;;;;-144.47;89.83;52977.25;5011774;28;20096;-64
2023/01/10 05:42:09;;;;;;;8.57;3.53;;;;;;;-144.47;90.35;52961.34;5012116;28;20030;-69
2023/01/10 05:44:35;;;;;;;11.32;3.55;;;;;;;-144.47;90.40;52983.22;5011626;28;20506;-70
2023/01/10 05:47:02;;;;;;;7.90;3.75;;;;;;;-144.47;90.71;52975.25;5009638;28;20684;-67
2023/01/10 05:49:28;;;;;;;8.15;3.60;;;;;;;-144.47;90.84;52979.22;5008080;28;20105;-67
2023/01/10 05:51:54;;;;;;;7.78;3.50;;;;;;;-144.47;90.72;52963.34;5006027;28;20113;-66
2023/01/10 05:54:19;;;;;;;9.93;3.95;;;;;;;-144.47;90.82;52967.31;5007399;28;20387;-67
2023/01/10 05:56:44;;;;;;;5.90;3.45;;;;;;;-144.47;90.90;52967.31;5011328;28;20152;-67
2023/01/10 05:59:10;;;;;;;12.32;3.90;;;;;;;-144.47;90.91;53013.00;5011017;28;20263;-64
2023/01/10 06:01:35;;;;;;;9.07;2.95;;;;;;;-144.47;90.91;52995.13;5009792;28;20496;-68
2023/01/10 06:04:01;;;;;;;7.72;3.47;;;;;;;-144.47;90.70;53011.00;5008717;28;21336;-63
2023/01/10 06:06:26;;;;;;;12.02;3.72;;;;;;;-144.47;90.69;52985.19;5010396;28;20520;-66
2023/01/10 06:08:54;;;;;;;15.05;4.55;;;;;;;-144.47;91.27;52951.44;5020496;28;20491;-66
2023/01/10 06:11:20;;;;;;;12.25;3.83;;;;;;;-144.47;90.32;52977.25;5009194;28;20109;-66
2023/01/10 06:13:47;;;;;;;7.25;3.88;;;;;;;-144.47;90.08;52983.22;5009837;28;20112;-66
2023/01/10 06:16:13;;;;;;;6.35;3.45;;;;;;;-144.47;90.15;52963.34;5008022;28;20087;-64
2023/01/10 06:18:38;;;;;;;7.30;3.80;;;;;;;-144.47;90.23;52985.19;5008798;28;20496;-66
2023/01/10 06:21:03;;;;;;;9.52;4.32;;;;;;;-144.47;89.71;52977.25;5008671;28;20034;-67
2023/01/10 06:23:29;;;;;;;10.90;3.85;;;;;;;-144.47;89.58;52991.16;5015422;28;20106;-67
2023/01/10 06:25:54;;;;;;;14.02;3.80;;;;;;;-144.47;89.73;52971.28;5009744;28;20037;-66
2023/01/10 06:28:20;;;;;;;10.85;4.15;;;;;;;-144.47;90.27;52993.13;5009969;28;20293;-66
2023/01/10 06:30:45;;;;;;;11.80;3.88;;;;;;;-144.47;90.45;52995.13;5003881;28;20028;-68
2023/01/10 06:33:11;;;;;;;8.27;4.10;;;;;;;-144.47;91.17;52975.25;5009423;28;20113;-66
2023/01/10 06:35:36;;;;;;;11.63;3.92;;;;;;;-144.47;90.92;52985.19;5004121;28;20040;-67
2023/01/10 06:38:02;;;;;;;9.15;4.05;;;;;;;-144.47;90.40;52975.25;5000566;28;20018;-65
2023/01/10 06:40:28;;;;;;;10.63;4.28;;;;;;;-144.47;90.90;52973.28;5005672;28;20026;-67
2023/01/10 06:42:53;;;;;;;11.52;4.60;;;;;;;-144.47;90.76;52979.22;5008107;28;20026;-67
2023/01/10 06:45:19;;;;;;;9.48;4.32;;;;;;;-144.47;91.08;52983.22;5008763;28;20087;-67
2023/01/10 06:47:44;;;;;;;12.32;4.03;;;;;;;-144.47;90.97;52973.28;5012523;28;20053;-68
2023/01/10 06:50:11;;;;;;;9.85;3.83;;;;;;;-144.47;90.59;52987.19;5009675;28;20104;-67
2023/01/10 06:52:36;;;;;;;7.05;3.25;;;;;;;-144.47;90.34;52959.38;5017162;28;20113;-68
2023/01/10 06:55:02;;;;;;;11.98;4.07;;;;;;;-144.47;90.30;53003.06;5013221;28;20022;-66
2023/01/10 06:57:28;;;;;;;13.05;3.58;;;;;;;-144.47;90.01;52975.25;5011023;28;20121;-66
2023/01/10 06:59:53;;;;;;;9.10;3.28;;;;;;;-144.47;89.66;52991.16;5009549;28;20149;-67
2023/01/10 07:02:19;;;;;;;11.27;3.60;;;;;;;-144.47;89.69;52977.25;5009264;28;20028;-64
2023/01/10 07:04:46;;;;;;;7.55;3.20;;;;;;;-144.47;89.34;52975.25;5020729;23;20482;-67
2023/01/10 07:07:12;;;;;;;10.93;2.92;;;;;;;-144.47;89.01;52965.34;5011155;28;20030;-66
2023/01/10 07:09:37;;;;;;;7.28;3.03;;;;;;;-144.47;89.16;52963.34;5013054;28;20036;-66
2023/01/10 07:12:02;;;;;;;11.65;3.08;;;;;;;-144.47;89.09;52985.19;5010925;28;20056;-67
2023/01/10 07:14:28;;;;;;;9.88;2.53;;;;;;;-144.47;88.68;53003.06;5010717;28;20110;-67
2023/01/10 07:16:53;;;;;;;8.32;2.97;;;;;;;-144.47;88.46;52953.41;5010370;28;20054;-66
2023/01/10 07:19:19;;;;;;;6.90;2.75;;;;;;;-144.47;88.26;52987.19;5009738;28;20029;-64
2023/01/10 07:21:44;;;;;;;6.10;2.80;;;;;;;-144.47;88.40;52989.16;5007921;28;20488;-68
2023/01/10 07:24:09;;;;;;;7.63;3.00;;;;;;;-144.47;88.44;52975.25;5021609;28;20125;-65
2023/01/10 07:26:35;;;;;;;6.38;2.58;;;;;;;-144.47;88.54;52977.25;5011964;28;20662;-67
2023/01/10 07:29:00;;;;;;;10.32;3.45;;;;;;;-144.47;88.38;52987.19;5010155;28;20138;-66
2023/01/10 07:31:26;;;;;;;12.63;3.33;;;;;;;-144.47;88.44;52985.19;5010212;28;20072;-67
2023/01/10 07:33:51;;;;;;;6.90;3.25;;;;;;;-144.47;88.53;52971.28;5010146;28;20029;-65
2023/01/10 07:36:17;;;;;;;12.82;3.47;;;;;;;-144.47;88.75;52947.47;5009944;28;20654;-67
2023/01/10 07:38:43;;;;;;;9.60;3.05;;;;;;;-144.47;88.39;52971.28;5007268;28;20117;-68
2023/01/10 07:41:08;;;;;;;7.97;3.17;;;;;;;-144.47;88.09;52971.28;5009248;28;20042;-67
2023/01/10 07:43:34;;;;;;;9.57;3.92;;;;;;;-144.47;87.71;52995.13;5009708;28;20108;-67
2023/01/10 07:46:01;;;;;;;12.50;2.88;;;;;;;-144.47;87.52;52991.16;5009115;28;20026;-67
2023/01/10 07:48:27;;;;;;;8.15;3.15;;;;;;;-144.47;88.21;52969.31;5009126;28;20057;-68
2023/01/10 07:51:00;;;;;;;6.70;2.67;;;;;;;-144.47;88.56;52943.47;5009068;28;20053;-67
2023/01/10 07:53:27;;;;;;;9.23;3.08;;;;;;;-144.47;88.33;52967.31;5007713;28;20037;-67
2023/01/10 07:55:52;;;;;;;11.68;3.50;;;;;;;-144.47;88.33;52987.19;5006152;28;20030;-67
2023/01/10 07:58:18;;;;;;;9.27;3.00;;;;;;;-144.47;88.37;52975.25;5002886;28;20026;-66
2023/01/10 08:00:44;;;;;;;8.82;2.70;;;;;;;-144.47;88.61;52979.22;5007631;28;20018;-67
2023/01/10 08:03:10;;;;;;;11.32;3.28;;;;;;;-144.47;88.41;52967.31;5011633;28;20039;-67
2023/01/10 08:05:36;;;;;;;8.38;2.35;;;;;;;-144.47;88.16;52963.34;5008142;28;20384;-66
2023/01/10 08:08:06;;;;;;;6.00;2.40;;;;;;;-144.47;88.19;52977.25;5017996;28;20061;-66
2023/01/10 08:10:33;;;;;;;7.97;3.10;;;;;;;-144.47;88.27;52991.16;5017475;28;20033;-66
2023/01/10 08:12:59;;;;;;;9.25;3.10;;;;;;;-144.47;88.42;52955.41;5009242;28;20017;-66
2023/01/10 08:15:24;;;;;;;6.15;3.03;;;;;;;-144.47;87.86;52981.22;5008512;28;20376;-66
2023/01/10 08:17:49;;;;;;;9.85;3.22;;;;;;;-144.47;87.52;53005.06;5008291;28;20105;-66
2023/01/10 08:20:15;;;;;;;13.63;3.22;;;;;;;-144.47;87.33;52977.25;5008647;28;20088;-67
2023/01/10 08:22:41;;;;;;;10.93;3.42;;;;;;;-144.47;87.19;52961.34;5002966;28;20487;-68
2023/01/10 08:25:07;;;;;;;12.95;3.63;;;;;;;-144.47;86.79;52951.44;5006025;28;20742;-66
2023/01/10 08:27:32;;;;;;;9.60;2.97;;;;;;;-144.47;86.82;52965.34;5010313;28;20096;-65
2023/01/10 08:29:57;;;;;;;10.13;3.20;;;;;;;-144.47;87.10;52965.34;5009336;28;20046;-67
2023/01/10 08:32:23;;;;;;;7.65;3.17;;;;;;;-144.47;86.74;52973.28;5009215;28;20032;-66
2023/01/10 08:34:48;;;;;;;9.15;2.50;;;;;;;-144.47;86.25;52967.31;5009977;28;20057;-68
2023/01/10 08:37:13;;;;;;;7.88;2.58;;;;;;;-144.47;85.75;52959.38;5009438;28;20577;-67
2023/01/10 08:39:39;;;;;;;9.73;2.97;;;;;;;-144.47;85.40;52967.31;5010558;28;20057;-66
2023/01/10 08:42:04;;;;;;;7.30;2.45;;;;;;;-144.47;85.74;52967.31;5009284;28;20615;-68
2023/01/10 08:44:30;;;;;;;5.32;2.42;;;;;;;-144.47;85.58;52977.25;5009732;28;20116;-66
2023/01/10 08:46:55;;;;;;;8.73;2.53;;;;;;;-144.47;85.76;52979.22;5009635;28;20091;-68
2023/01/10 08:49:21;;;;;;;5.97;2.50;;;;;;;-144.47;85.78;52959.38;5008847;28;20101;-66
2023/01/10 08:51:46;;;;;;;9.63;2.78;;;;;;;-144.47;85.53;52959.38;5008918;28;20125;-67
2023/01/10 08:54:12;;;;;;;7.90;2.67;;;;;;;-144.47;85.38;52951.44;5008925;28;20057;-68
2023/01/10 08:56:38;;;;;;;4.35;2.50;;;;;;;-144.47;85.28;52967.31;5007848;28;20038;-65
2023/01/10 08:59:04;;;;;;;6.85;2.75;;;;;;;-144.47;85.21;52959.38;5008707;28;20451;-67
2023/01/10 09:01:30;;;;;;;8.23;2.95;;;;;;;-144.47;85.58;52951.44;5007740;28;20022;-65
2023/01/10 09:03:55;;;;;;;6.63;2.45;;;;;;;-144.47;85.65;52953.41;5007709;28;20048;-67
2023/01/10 09:06:20;;;;;;;7.57;3.45;;;;;;;-144.47;85.16;52971.28;5008169;28;20069;-65
2023/01/10 09:08:46;;;;;;;17.70;4.03;;;;;;;-144.47;84.61;52957.38;5015686;28;20403;-68
2023/01/10 09:11:11;;;;;;;11.63;3.20;;;;;;;-144.47;84.52;52983.22;5006112;28;20064;-66
2023/01/10 09:13:36;;;;;;;6.55;2.80;;;;;;;-144.47;84.43;52969.31;5005291;28;20045;-67
2023/01/10 09:16:02;;;;;;;7.32;3.08;;;;;;;-144.47;84.57;52995.13;5006767;28;20021;-68
2023/01/10 09:18:28;;;;;;;9.70;3.03;;;;;;;-144.47;84.76;52953.41;5007111;28;20044;-65
2023/01/10 09:20:53;;;;;;;9.18;3.13;;;;;;;-144.47;83.88;52965.34;5013922;28;20431;-65
2023/01/10 09:23:21;;;;;;;7.78;2.53;;;;;;;-144.47;83.70;52947.47;5001981;28;20041;-67
2023/01/10 09:25:48;;;;;;;14.20;3.20;;;;;;;-144.47;83.39;52967.31;5006907;28;20411;-68
2023/01/10 09:28:14;;;;;;;11.25;2.60;;;;;;;-144.47;83.42;52971.28;5007941;28;20025;-67
2023/01/10 09:30:40;;;;;;;10.98;2.58;;;;;;;-144.47;82.74;52981.22;5006685;28;20511;-65
2023/01/10 09:33:06;;;;;;;9.45;2.30;;;;;;;-144.47;82.47;52963.34;5012290;28;20069;-68
2023/01/10 09:35:35;;;;;;;8.93;3.03;;;;;;;-144.47;81.85;52953.41;5006996;28;20053;-66
2023/01/10 09:38:00;;;;;;;13.25;2.90;;;;;;;-144.47;82.12;52961.34;5008024;28;20026;-66
2023/01/10 09:40:29;;;;;;;12.50;2.97;;;;;;;-144.47;81.65;52969.31;5007623;28;20119;-68
2023/01/10 09:43:19;;;;;;;12.85;2.65;;;;;;;-144.47;81.65;52951.44;5007993;28;20048;-66
2023/01/10 09:45:58;;;;;;;8.55;2.35;;;;;;;-144.47;81.02;52957.38;5006801;28;20034;-64
2023/01/10 09:48:42;;;;;;;;;;;;;;;-144.47;81.39;52959.38;5006858;28;20022;-67
2023/01/10 09:51:35;;;;;;;12.77;2.85;;;;;;;-144.47;81.11;52933.56;5007639;28;19909;-68
2023/01/10 09:54:05;;;;;;;11.30;2.40;;;;;;;-144.47;81.33;52943.47;5006045;28;20026;-68
2023/01/10 09:56:32;;;;;;;8.68;3.33;;;;;;;-144.47;80.83;52949.44;5001588;28;20094;-66
2023/01/10 09:58:59;;;;;;;16.42;3.38;;;;;;;-144.47;80.98;52949.44;5008102;28;20377;-67
2023/01/10 10:01:37;;;;;;;9.90;2.40;;;;;;;-144.47;79.96;52933.56;5006514;28;20102;-67
2023/01/10 10:04:36;;;;;;;5.68;2.22;;;;;;;-144.47;80.50;52953.41;5007717;28;20034;-66
2023/01/10 10:07:03;;;;;;;17.42;2.72;;;;;;;-144.47;80.51;52937.53;4979732;28;20069;-66
2023/01/10 10:09:31;;;;;;;11.27;3.47;;;;;;;-144.47;80.07;52981.22;5005897;28;20192;-67
2023/01/10 10:12:15;;;;;;;9.60;2.40;;;;;;;-144.47;79.66;52939.50;4996345;28;20107;-66
2023/01/10 10:14:55;;;;;;;9.32;2.55;;;;;;;-144.47;80.01;52943.47;5005213;28;20033;-66
2023/01/10 10:17:45;;;;;;;7.90;2.03;;;;;;;-144.47;79.79;52959.38;5007435;28;20111;-65
2023/01/10 10:20:48;;;;;;;11.30;2.28;;;;;;;-144.47;79.71;52947.47;4996132;28;20402;-67
2023/01/10 10:23:19;;;;;;;11.50;2.67;;;;;;;-144.47;78.76;52953.41;5002332;28;20037;-67
2023/01/10 10:25:59;;;;;;;5.78;1.90;;;;;;;-144.47;78.62;52959.38;5007935;28;20107;-66
2023/01/10 10:28:43;;;;;;;10.85;2.40;;;;;;;-144.47;79.28;52957.38;5007017;28;20045;-65
2023/01/10 10:31:42;;;;;;;5.43;2.05;;;;;;;-144.47;79.09;52941.50;5005625;28;20112;-68
2023/01/10 10:34:37;;;;;;;4.85;1.95;;;;;;;-144.47;78.69;52955.41;5016756;28;20494;-67
2023/01/10 10:37:20;;;;;;;14.90;3.17;;;;;;;-144.47;78.50;52921.63;5010793;28;20033;-67
2023/01/10 10:39:53;;;;;;;13.45;2.33;;;;;;;-144.47;76.78;52959.38;5008790;28;20062;-66
2023/01/10 10:42:19;;;;;;;6.70;2.70;;;;;;;-144.47;77.05;52931.56;5011312;28;20097;-66
2023/01/10 10:44:48;;;;;;;5.53;1.92;;;;;;;-144.47;76.69;52953.41;5012381;28;20048;-67
2023/01/10 10:47:19;;;;;;;10.02;2.20;;;;;;;-144.47;76.73;52951.44;5010301;28;20399;-67
2023/01/10 10:50:14;;;;;;;14.13;1.80;;;;;;;-144.47;76.13;52923.63;5010645;28;20037;-67
2023/01/10 10:52:41;;;;;;;13.23;2.35;;;;;;;-144.47;75.91;52933.56;4964131;28;20047;-67
2023/01/10 10:55:13;;;;;;;14.13;2.60;;;;;;;-144.47;75.92;52957.38;5010941;28;20032;-67
2023/01/10 10:57:40;;;;;;;5.72;2.10;;;;;;;-144.47;75.81;52951.44;5011033;28;20064;-68
2023/01/10 11:00:12;;;;;;;6.50;2.22;;;;;;;-144.47;75.58;52931.56;5011002;28;20554;-67
2023/01/10 11:02:44;;;;;;;8.05;2.17;;;;;;;-144.47;75.16;52949.44;5011516;28;20034;-67
2023/01/10 11:05:22;;;;;;;4.55;2.10;;;;;;;-144.47;75.91;52963.34;5009726;28;20125;-67
2023/01/10 11:07:48;;;;;;;7.15;2.35;;;;;;;-144.47;75.36;52943.47;5010824;28;20026;-65
2023/01/10 11:12:50;;;;;;;7.90;2.50;;;;;;;-144.47;74.98;52937.53;5011494;28;20472;-64
2023/01/10 11:15:43;;;;;;;7.00;2.33;;;;;;;-144.47;74.69;52943.47;5009670;28;20097;-67
2023/01/10 11:18:20;;;;;;;10.18;2.17;;;;;;;-144.47;74.50;52955.41;5009361;28;20049;-67
2023/01/10 11:21:14;;;;;;;10.35;2.33;;;;;;;-144.47;74.37;52917.66;5010528;28;20041;-68
2023/01/10 11:23:48;;;;;;;7.32;2.22;;;;;;;-144.47;74.61;52933.56;5010588;28;20456;-66
2023/01/10 11:26:22;;;;;;;10.82;2.30;;;;;;;-144.47;74.51;52951.44;5009768;28;20240;-66
2023/01/10 11:28:51;;;;;;;10.77;2.35;;;;;;;-144.47;74.34;52943.47;5010621;28;20022;-65
2023/01/10 11:31:26;;;;;;;8.02;2.03;;;;;;;-144.47;73.79;52949.44;5011168;28;20106;-68
2023/01/10 11:33:52;;;;;;;8.52;2.33;;;;;;;-144.47;73.35;52905.75;5017250;28;20026;-67
2023/01/10 11:36:17;;;;;;;8.70;2.42;;;;;;;-144.47;72.86;52943.47;5009953;28;20037;-67
2023/01/10 11:38:59;;;;;;;13.77;2.28;;;;;;;-144.47;72.09;52911.69;5009351;28;20448;-66